Time;durP1;ratioP1;P1;durP2;ratioP2;P2;SDS_P1;SDS_P2;PMS_P1;PMS_P2;Temp;Humidity;BMP_temperature;BMP_pressure;BME280_temperature;BME280_humidity;BME280_pressure;Samples;Min_cycle;Max_cycle;Signal;HPM_P1;HPM_P2
2023/04/25 00:02:08;;;;;;;6.00;2.13;;;;;;;;;;4986788;28;20113;-65
2023/04/25 00:04:34;;;;;;;5.38;2.30;;;;;;;;;;4991986;28;20045;-66
2023/04/25 00:07:01;;;;;;;3.92;1.65;;;;;;;;;;4976351;28;20136;-66
2023/04/25 00:09:27;;;;;;;6.85;2.10;;;;;;;;;;4974783;28;20454;-66
2023/04/25 00:11:53;;;;;;;4.93;1.80;;;;;;;;;;4985754;28;20121;-66
2023/04/25 00:14:18;;;;;;;4.93;1.98;;;;;;;;;;4973981;28;20128;-66
2023/04/25 00:16:44;;;;;;;3.35;2.00;;;;;;;;;;4993341;28;20038;-66
2023/04/25 00:19:09;;;;;;;5.18;2.40;;;;;;;;;;4986053;28;20041;-66
2023/04/25 00:21:35;;;;;;;3.30;2.10;;;;;;;;;;4979772;28;20430;-66
2023/04/25 00:24:01;;;;;;;4.15;1.80;;;;;;;;;;4984527;28;20037;-66
2023/04/25 00:26:26;;;;;;;3.00;2.13;;;;;;;;;;4996534;28;20466;-66
2023/04/25 00:28:52;;;;;;;4.75;2.00;;;;;;;;;;4982454;28;20521;-66
2023/04/25 00:31:17;;;;;;;4.28;1.83;;;;;;;;;;4985416;28;20052;-66
2023/04/25 00:33:43;;;;;;;3.58;1.67;;;;;;;;;;4970634;28;20030;-66
2023/04/25 00:36:08;;;;;;;5.05;1.83;;;;;;;;;;4979533;28;20033;-66
2023/04/25 00:38:34;;;;;;;2.92;1.73;;;;;;;;;;4994001;28;20469;-66
2023/04/25 00:41:00;;;;;;;3.33;1.95;;;;;;;;;;4985685;28;20046;-66
2023/04/25 00:43:26;;;;;;;4.43;2.30;;;;;;;;;;4976019;28;20526;-66
2023/04/25 00:45:52;;;;;;;3.88;2.00;;;;;;;;;;4985482;28;20129;-66
2023/04/25 00:48:18;;;;;;;5.13;2.35;;;;;;;;;;4992896;28;20080;-66
2023/04/25 00:50:53;;;;;;;6.82;3.10;;;;;;;;;;4987039;28;20057;-65
2023/04/25 00:53:22;;;;;;;5.22;2.30;;;;;;;;;;4985939;28;20048;-65
2023/04/25 00:55:50;;;;;;;4.80;2.90;;;;;;;;;;4975220;28;20099;-66
2023/04/25 00:58:16;;;;;;;5.68;3.08;;;;;;;;;;4989231;28;20129;-66
2023/04/25 01:00:42;;;;;;;4.82;3.25;;;;;;;;;;4999998;28;20104;-66
2023/04/25 01:03:07;;;;;;;3.42;1.45;;;;;;;;;;4980465;28;20057;-65
2023/04/25 01:05:33;;;;;;;7.38;3.50;;;;;;;;;;4984866;28;20201;-66
2023/04/25 01:07:59;;;;;;;6.95;3.33;;;;;;;;;;4984651;28;20592;-66
2023/04/25 01:10:24;;;;;;;7.95;2.78;;;;;;;;;;4990688;28;20103;-66
2023/04/25 01:12:50;;;;;;;4.97;3.13;;;;;;;;;;4987707;28;20030;-65
2023/04/25 01:15:16;;;;;;;4.45;2.92;;;;;;;;;;4978831;28;20034;-66
2023/04/25 01:17:42;;;;;;;3.47;2.15;;;;;;;;;;4981951;28;20030;-66
2023/04/25 01:20:09;;;;;;;5.63;3.42;;;;;;;;;;4988473;28;20033;-66
2023/04/25 01:22:35;;;;;;;5.70;3.65;;;;;;;;;;4986197;28;20033;-66
2023/04/25 01:25:00;;;;;;;6.07;3.22;;;;;;;;;;4982187;28;20438;-65
2023/04/25 01:27:26;;;;;;;5.18;2.83;;;;;;;;;;4974732;28;20034;-65
2023/04/25 01:29:51;;;;;;;9.15;4.05;;;;;;;;;;4986863;28;20086;-66
2023/04/25 01:32:17;;;;;;;6.43;3.70;;;;;;;;;;4984348;28;20133;-66
2023/04/25 01:34:43;;;;;;;6.15;4.13;;;;;;;;;;4993072;28;20121;-66
2023/04/25 01:37:08;;;;;;;3.95;2.38;;;;;;;;;;4970986;28;20044;-66
2023/04/25 01:39:34;;;;;;;7.65;3.55;;;;;;;;;;4985080;28;20038;-66
2023/04/25 01:42:00;;;;;;;6.30;4.20;;;;;;;;;;4984111;28;20068;-66
2023/04/25 01:44:25;;;;;;;6.50;3.90;;;;;;;;;;4992372;28;20465;-66
2023/04/25 01:46:51;;;;;;;8.57;5.32;;;;;;;;;;4988245;28;20742;-66
2023/04/25 01:49:16;;;;;;;9.88;4.63;;;;;;;;;;4987385;28;20050;-65
2023/04/25 01:51:42;;;;;;;9.20;5.60;;;;;;;;;;4975350;28;20037;-66
2023/04/25 01:54:09;;;;;;;10.60;5.03;;;;;;;;;;4993474;28;20109;-66
2023/04/25 01:56:37;;;;;;;7.28;4.25;;;;;;;;;;4996492;28;20522;-66
2023/04/25 01:59:04;;;;;;;11.25;5.05;;;;;;;;;;4974240;28;20578;-66
2023/04/25 02:01:29;;;;;;;10.00;5.18;;;;;;;;;;4985472;28;20124;-66
2023/04/25 02:03:55;;;;;;;11.32;5.25;;;;;;;;;;4989974;28;20133;-65
2023/04/25 02:06:20;;;;;;;10.63;5.88;;;;;;;;;;4989993;28;20050;-66
2023/04/25 02:08:46;;;;;;;11.27;6.10;;;;;;;;;;4988631;28;20107;-65
2023/04/25 02:11:11;;;;;;;8.80;4.35;;;;;;;;;;4987503;28;20041;-66
2023/04/25 02:13:36;;;;;;;4.55;3.03;;;;;;;;;;4983576;28;20707;-65
2023/04/25 02:16:02;;;;;;;12.13;6.25;;;;;;;;;;4994064;28;20037;-65
2023/04/25 02:18:27;;;;;;;9.15;5.15;;;;;;;;;;4992905;28;20044;-66
2023/04/25 02:20:53;;;;;;;8.68;5.25;;;;;;;;;;4979089;28;20089;-65
2023/04/25 02:23:21;;;;;;;8.32;4.95;;;;;;;;;;4989135;28;20707;-66
2023/04/25 02:25:46;;;;;;;10.90;5.45;;;;;;;;;;4990798;28;20514;-66
2023/04/25 02:28:11;;;;;;;8.30;4.15;;;;;;;;;;4991132;28;20124;-66
2023/04/25 02:30:37;;;;;;;10.20;4.70;;;;;;;;;;4991574;28;20096;-66
2023/04/25 02:33:03;;;;;;;8.85;3.85;;;;;;;;;;4982847;28;20045;-65
2023/04/25 02:35:28;;;;;;;10.48;4.57;;;;;;;;;;4982227;28;20530;-66
2023/04/25 02:37:53;;;;;;;7.65;3.88;;;;;;;;;;5000859;28;20097;-65
2023/04/25 02:40:27;;;;;;;7.40;3.72;;;;;;;;;;5001219;28;20042;-65
2023/04/25 02:42:52;;;;;;;8.85;3.85;;;;;;;;;;4986198;28;20045;-65
2023/04/25 02:45:17;;;;;;;7.70;4.43;;;;;;;;;;4987784;28;20046;-65
2023/04/25 02:47:43;;;;;;;8.27;3.92;;;;;;;;;;4981056;28;20038;-65
2023/04/25 02:50:08;;;;;;;8.52;3.97;;;;;;;;;;4993610;28;20064;-65
2023/04/25 02:52:34;;;;;;;9.73;4.30;;;;;;;;;;4986946;28;20398;-65
2023/04/25 02:54:59;;;;;;;7.70;3.97;;;;;;;;;;4979566;28;20037;-65
2023/04/25 02:57:24;;;;;;;9.75;5.82;;;;;;;;;;4977739;28;20073;-65
2023/04/25 02:59:50;;;;;;;11.80;4.20;;;;;;;;;;4996436;28;20088;-65
2023/04/25 03:02:15;;;;;;;7.85;4.00;;;;;;;;;;4984990;28;20049;-65
2023/04/25 03:04:41;;;;;;;8.95;3.92;;;;;;;;;;4987373;28;20522;-65
2023/04/25 03:07:06;;;;;;;9.32;4.78;;;;;;;;;;4987246;28;20044;-65
2023/04/25 03:09:32;;;;;;;8.05;4.32;;;;;;;;;;4975784;28;20107;-65
2023/04/25 03:11:57;;;;;;;8.70;4.07;;;;;;;;;;5001159;28;20434;-65
2023/04/25 03:14:23;;;;;;;9.93;4.45;;;;;;;;;;4990446;28;20034;-65
2023/04/25 03:16:48;;;;;;;7.50;4.15;;;;;;;;;;4983635;28;20788;-66
2023/04/25 03:19:15;;;;;;;9.25;4.80;;;;;;;;;;4987154;28;20060;-66
2023/04/25 03:21:41;;;;;;;8.95;4.30;;;;;;;;;;4988691;28;20044;-66
2023/04/25 03:24:06;;;;;;;5.78;3.58;;;;;;;;;;4990052;28;20034;-66
2023/04/25 03:26:32;;;;;;;7.35;3.58;;;;;;;;;;4989445;28;20224;-66
2023/04/25 03:28:57;;;;;;;7.50;3.97;;;;;;;;;;4990647;28;20046;-66
2023/04/25 03:31:22;;;;;;;8.20;3.35;;;;;;;;;;4977112;28;20129;-66
2023/04/25 03:33:48;;;;;;;7.20;2.85;;;;;;;;;;5000523;28;20034;-66
2023/04/25 03:36:14;;;;;;;6.70;3.28;;;;;;;;;;4990723;28;20046;-65
2023/04/25 03:38:41;;;;;;;9.05;3.95;;;;;;;;;;4976416;28;20438;-65
2023/04/25 03:41:06;;;;;;;3.40;2.10;;;;;;;;;;4989086;28;20113;-65
2023/04/25 03:43:31;;;;;;;6.43;3.88;;;;;;;;;;4980026;28;20105;-65
2023/04/25 03:45:57;;;;;;;8.95;4.05;;;;;;;;;;4997542;28;20053;-65
2023/04/25 03:48:24;;;;;;;6.13;3.30;;;;;;;;;;4986426;28;20069;-65
2023/04/25 03:50:50;;;;;;;5.60;3.03;;;;;;;;;;4992654;28;20117;-65
2023/04/25 03:53:15;;;;;;;4.22;1.50;;;;;;;;;;4979043;28;20203;-66
2023/04/25 03:55:40;;;;;;;7.88;3.22;;;;;;;;;;5001980;28;20068;-66
2023/04/25 03:58:08;;;;;;;4.50;2.95;;;;;;;;;;4984247;28;20038;-66
2023/04/25 04:00:33;;;;;;;8.27;3.88;;;;;;;;;;4986043;28;20034;-66
2023/04/25 04:02:59;;;;;;;5.53;3.33;;;;;;;;;;4988632;28;20049;-66
2023/04/25 04:05:24;;;;;;;8.20;3.83;;;;;;;;;;4976169;28;20116;-66
2023/04/25 04:07:50;;;;;;;5.80;3.00;;;;;;;;;;5002652;28;20034;-66
2023/04/25 04:10:15;;;;;;;7.22;3.83;;;;;;;;;;4987139;28;20054;-64
2023/04/25 04:12:40;;;;;;;5.65;3.13;;;;;;;;;;4976547;28;20176;-66
2023/04/25 04:15:07;;;;;;;7.07;3.42;;;;;;;;;;4985431;28;20380;-66
2023/04/25 04:17:32;;;;;;;5.57;3.47;;;;;;;;;;5000823;28;20052;-66
2023/04/25 04:19:58;;;;;;;6.40;3.25;;;;;;;;;;4985227;28;20041;-65
2023/04/25 04:22:24;;;;;;;4.72;3.10;;;;;;;;;;4987189;28;20046;-65
2023/04/25 04:24:49;;;;;;;8.88;3.38;;;;;;;;;;4986929;28;20041;-65
2023/04/25 04:27:17;;;;;;;7.53;3.70;;;;;;;;;;4966715;28;20042;-66
2023/04/25 04:29:43;;;;;;;6.63;3.83;;;;;;;;;;4991465;28;20397;-65
2023/04/25 04:32:08;;;;;;;7.80;4.07;;;;;;;;;;4982162;28;20130;-65
2023/04/25 04:34:34;;;;;;;10.35;4.85;;;;;;;;;;4975804;28;20859;-66
2023/04/25 04:37:00;;;;;;;8.90;4.47;;;;;;;;;;4988293;28;20064;-66
2023/04/25 04:39:25;;;;;;;8.18;4.20;;;;;;;;;;4998502;28;20791;-65
2023/04/25 04:41:51;;;;;;;7.28;4.03;;;;;;;;;;4965264;28;20043;-67
2023/04/25 04:44:16;;;;;;;9.98;5.07;;;;;;;;;;4985729;28;20046;-67
2023/04/25 04:46:42;;;;;;;7.57;4.47;;;;;;;;;;4985943;28;20077;-66
2023/04/25 04:49:12;;;;;;;13.75;4.78;;;;;;;;;;4980537;28;20041;-66
2023/04/25 04:51:38;;;;;;;10.45;5.05;;;;;;;;;;4991230;28;20048;-66
2023/04/25 04:54:04;;;;;;;7.50;4.35;;;;;;;;;;4977683;28;20045;-66
2023/04/25 04:56:30;;;;;;;10.32;4.28;;;;;;;;;;4973095;28;20046;-65
2023/04/25 04:58:57;;;;;;;10.52;4.38;;;;;;;;;;4986649;28;20186;-66
2023/04/25 05:01:23;;;;;;;7.68;4.43;;;;;;;;;;4978878;28;20128;-66
2023/04/25 05:03:48;;;;;;;8.75;4.85;;;;;;;;;;4995722;28;20507;-66
2023/04/25 05:06:14;;;;;;;9.88;6.28;;;;;;;;;;4985682;28;20041;-65
2023/04/25 05:08:39;;;;;;;12.70;5.35;;;;;;;;;;4976230;28;20518;-66
2023/04/25 05:11:05;;;;;;;8.27;4.75;;;;;;;;;;4985470;28;20046;-67
2023/04/25 05:13:30;;;;;;;7.80;4.65;;;;;;;;;;4993952;28;20045;-65
2023/04/25 05:15:55;;;;;;;8.80;4.53;;;;;;;;;;4975211;28;20044;-66
2023/04/25 05:18:21;;;;;;;8.65;4.65;;;;;;;;;;4980516;28;20145;-65
2023/04/25 05:20:46;;;;;;;9.35;5.30;;;;;;;;;;4986473;28;20097;-66
2023/04/25 05:23:11;;;;;;;7.13;3.90;;;;;;;;;;4984702;28;20041;-66
2023/04/25 05:25:37;;;;;;;8.27;4.47;;;;;;;;;;5008259;23;20046;-66
2023/04/25 05:28:02;;;;;;;8.70;4.20;;;;;;;;;;4982404;28;20042;-67
2023/04/25 05:30:28;;;;;;;9.43;4.28;;;;;;;;;;4968353;28;20030;-67
2023/04/25 05:32:53;;;;;;;5.38;3.33;;;;;;;;;;4965774;28;20402;-68
2023/04/25 05:35:18;;;;;;;6.07;3.53;;;;;;;;;;4976109;28;20042;-68
2023/04/25 05:37:44;;;;;;;8.07;3.90;;;;;;;;;;4978889;28;20114;-67
2023/04/25 05:40:10;;;;;;;7.78;4.32;;;;;;;;;;4980464;28;20104;-68
2023/04/25 05:42:35;;;;;;;6.72;3.50;;;;;;;;;;4947635;28;20060;-68
2023/04/25 05:45:00;;;;;;;8.88;4.00;;;;;;;;;;4964992;28;20039;-68
2023/04/25 05:47:26;;;;;;;6.25;3.42;;;;;;;;;;4962622;28;20038;-68
2023/04/25 05:49:51;;;;;;;8.02;4.35;;;;;;;;;;4961355;28;20035;-68
2023/04/25 05:52:17;;;;;;;5.45;3.60;;;;;;;;;;4966535;28;20042;-68
2023/04/25 05:54:42;;;;;;;12.02;4.40;;;;;;;;;;4973137;28;20124;-68
2023/04/25 05:57:07;;;;;;;6.88;4.75;;;;;;;;;;4985435;28;20043;-68
2023/04/25 05:59:33;;;;;;;7.15;4.13;;;;;;;;;;4950839;28;20495;-68
2023/04/25 06:01:58;;;;;;;6.82;3.80;;;;;;;;;;4958590;28;20042;-68
2023/04/25 06:04:25;;;;;;;9.85;4.70;;;;;;;;;;4959680;28;20031;-68
2023/04/25 06:06:50;;;;;;;5.88;3.67;;;;;;;;;;4957096;28;20043;-69
2023/04/25 06:09:16;;;;;;;7.40;4.10;;;;;;;;;;4979911;28;20046;-68
2023/04/25 06:11:41;;;;;;;7.28;3.60;;;;;;;;;;4962340;28;20109;-68
2023/04/25 06:14:07;;;;;;;5.10;3.08;;;;;;;;;;4957389;28;20038;-68
2023/04/25 06:16:32;;;;;;;5.68;3.70;;;;;;;;;;4970559;28;20046;-68
2023/04/25 06:18:58;;;;;;;8.48;3.90;;;;;;;;;;4976650;28;20035;-68
2023/04/25 06:21:23;;;;;;;5.70;3.00;;;;;;;;;;4957150;28;20035;-68
2023/04/25 06:23:48;;;;;;;5.60;3.33;;;;;;;;;;4976596;28;20049;-68
2023/04/25 06:26:14;;;;;;;5.68;3.28;;;;;;;;;;4978699;28;20055;-68
2023/04/25 06:28:39;;;;;;;5.35;3.03;;;;;;;;;;4971506;28;20406;-68
2023/04/25 06:31:05;;;;;;;6.68;3.10;;;;;;;;;;4964613;28;20042;-69
2023/04/25 06:33:30;;;;;;;4.30;2.65;;;;;;;;;;4962558;28;20050;-68
2023/04/25 06:35:55;;;;;;;5.90;3.28;;;;;;;;;;4966072;28;20195;-69
2023/04/25 06:38:21;;;;;;;4.22;2.13;;;;;;;;;;4962399;28;20493;-68
2023/04/25 06:40:46;;;;;;;4.15;2.78;;;;;;;;;;4969455;28;20046;-70
2023/04/25 06:43:11;;;;;;;4.75;2.50;;;;;;;;;;4952633;28;20039;-68
2023/04/25 06:45:37;;;;;;;5.80;2.22;;;;;;;;;;4947554;28;20051;-68
2023/04/25 06:48:02;;;;;;;5.63;2.30;;;;;;;;;;4949588;28;20110;-68
2023/04/25 06:50:28;;;;;;;3.85;2.17;;;;;;;;;;4959474;28;20612;-68
2023/04/25 06:52:53;;;;;;;6.78;2.85;;;;;;;;;;4956942;28;20070;-68
2023/04/25 06:55:19;;;;;;;7.63;2.55;;;;;;;;;;4958284;28;20042;-69
2023/04/25 06:57:44;;;;;;;7.57;3.08;;;;;;;;;;4984303;28;20057;-68
2023/04/25 07:00:10;;;;;;;8.70;2.20;;;;;;;;;;4951276;28;20618;-69
2023/04/25 07:02:36;;;;;;;10.75;2.65;;;;;;;;;;4954060;28;20053;-68
2023/04/25 07:05:03;;;;;;;8.13;2.65;;;;;;;;;;4974580;28;20041;-68
2023/04/25 07:07:30;;;;;;;6.55;2.95;;;;;;;;;;4962483;28;20518;-68
2023/04/25 07:09:55;;;;;;;4.28;1.98;;;;;;;;;;4947274;28;20085;-68
2023/04/25 07:12:21;;;;;;;7.72;2.53;;;;;;;;;;4955748;28;20069;-68
2023/04/25 07:14:46;;;;;;;8.63;2.25;;;;;;;;;;4960169;28;20042;-68
2023/04/25 07:17:11;;;;;;;6.68;2.55;;;;;;;;;;4968314;28;20086;-68
2023/04/25 07:19:38;;;;;;;3.80;1.73;;;;;;;;;;4957144;28;21473;-68
2023/04/25 07:22:04;;;;;;;7.97;2.17;;;;;;;;;;4974247;28;20064;-68
2023/04/25 07:24:32;;;;;;;9.40;2.08;;;;;;;;;;4959717;28;20205;-68
2023/04/25 07:26:58;;;;;;;7.03;2.25;;;;;;;;;;4970898;28;20058;-68
2023/04/25 07:29:23;;;;;;;7.35;2.38;;;;;;;;;;4980246;28;20372;-68
2023/04/25 07:31:49;;;;;;;4.95;1.88;;;;;;;;;;4982317;28;20121;-68
2023/04/25 07:34:15;;;;;;;7.57;2.78;;;;;;;;;;4967957;28;20042;-68
2023/04/25 07:36:41;;;;;;;6.15;2.30;;;;;;;;;;4954040;28;20042;-68
2023/04/25 07:39:06;;;;;;;4.30;2.20;;;;;;;;;;4962075;28;20094;-68
2023/04/25 07:41:32;;;;;;;7.05;2.45;;;;;;;;;;4982273;28;20065;-68
2023/04/25 07:43:57;;;;;;;6.85;2.00;;;;;;;;;;4959811;28;20244;-68
2023/04/25 07:46:23;;;;;;;8.98;2.60;;;;;;;;;;4955418;28;20042;-68
2023/04/25 07:48:49;;;;;;;9.23;3.28;;;;;;;;;;4954183;28;20165;-68
2023/04/25 07:51:14;;;;;;;10.57;2.55;;;;;;;;;;4947944;28;20065;-68
2023/04/25 07:53:40;;;;;;;5.88;2.10;;;;;;;;;;4940969;28;20034;-68
2023/04/25 07:56:06;;;;;;;8.43;3.67;;;;;;;;;;4955681;28;20050;-68
2023/04/25 07:58:31;;;;;;;7.93;2.42;;;;;;;;;;4957187;28;20035;-68
2023/04/25 08:00:57;;;;;;;11.40;3.13;;;;;;;;;;4952706;28;20086;-68
2023/04/25 08:03:22;;;;;;;5.97;2.25;;;;;;;;;;4961610;28;20061;-68
2023/04/25 08:05:47;;;;;;;6.43;2.00;;;;;;;;;;4949655;28;20035;-68
2023/04/25 08:08:13;;;;;;;7.28;3.03;;;;;;;;;;4961542;28;20115;-66
2023/04/25 08:10:38;;;;;;;7.53;2.30;;;;;;;;;;4955594;28;20042;-66
2023/04/25 08:13:04;;;;;;;4.78;1.50;;;;;;;;;;4955650;28;20034;-66
2023/04/25 08:15:29;;;;;;;10.38;2.13;;;;;;;;;;4955912;28;20031;-66
2023/04/25 08:17:55;;;;;;;8.98;2.67;;;;;;;;;;4970769;28;20045;-65
2023/04/25 08:20:20;;;;;;;10.45;2.40;;;;;;;;;;4959009;28;20073;-66
2023/04/25 08:22:45;;;;;;;8.25;2.83;;;;;;;;;;4957309;28;20041;-65
2023/04/25 08:25:11;;;;;;;7.63;1.90;;;;;;;;;;4978600;28;20677;-67
2023/04/25 08:27:36;;;;;;;7.38;2.50;;;;;;;;;;4977855;28;20507;-66
2023/04/25 08:30:03;;;;;;;8.60;2.08;;;;;;;;;;4980532;28;20232;-66
2023/04/25 08:32:28;;;;;;;6.35;2.10;;;;;;;;;;4952818;28;20527;-65
2023/04/25 08:34:55;;;;;;;6.72;1.80;;;;;;;;;;4937276;28;20105;-65
2023/04/25 08:37:21;;;;;;;10.07;2.38;;;;;;;;;;4960597;28;20042;-66
2023/04/25 08:39:48;;;;;;;4.32;1.65;;;;;;;;;;4974505;28;20053;-66
2023/04/25 08:42:15;;;;;;;8.68;2.75;;;;;;;;;;4951524;28;20512;-66
2023/04/25 08:44:40;;;;;;;7.70;2.63;;;;;;;;;;4951191;28;20474;-66
2023/04/25 08:47:06;;;;;;;8.32;2.47;;;;;;;;;;4953420;28;20035;-66
2023/04/25 08:49:33;;;;;;;9.85;3.30;;;;;;;;;;4950801;28;20127;-66
2023/04/25 08:52:05;;;;;;;5.40;1.73;;;;;;;;;;4983814;28;20082;-66
2023/04/25 08:54:31;;;;;;;10.98;2.75;;;;;;;;;;4958618;28;20498;-66
2023/04/25 08:57:01;;;;;;;7.68;1.95;;;;;;;;;;4957124;28;20055;-67
2023/04/25 08:59:27;;;;;;;7.25;1.70;;;;;;;;;;4958586;28;20035;-67
2023/04/25 09:01:53;;;;;;;8.90;2.80;;;;;;;;;;4948578;28;20058;-67
2023/04/25 09:04:20;;;;;;;7.25;2.25;;;;;;;;;;4940458;28;20633;-66
2023/04/25 09:06:46;;;;;;;7.25;2.17;;;;;;;;;;4968655;28;20034;-65
2023/04/25 09:09:11;;;;;;;9.48;2.47;;;;;;;;;;4973444;28;20049;-66
2023/04/25 09:11:37;;;;;;;10.30;1.95;;;;;;;;;;4973900;28;20089;-65
2023/04/25 09:14:22;;;;;;;6.60;2.00;;;;;;;;;;4941176;28;20050;-65
2023/04/25 09:16:57;;;;;;;5.85;1.75;;;;;;;;;;4947320;28;20114;-66
2023/04/25 09:19:24;;;;;;;10.82;2.65;;;;;;;;;;4973550;28;20170;-65
2023/04/25 09:21:50;;;;;;;7.97;2.38;;;;;;;;;;4960883;28;20036;-64
2023/04/25 09:24:16;;;;;;;8.23;1.90;;;;;;;;;;4947851;28;20556;-66
2023/04/25 09:26:41;;;;;;;2.88;1.90;;;;;;;;;;4957215;28;20510;-66
2023/04/25 09:29:07;;;;;;;6.13;2.30;;;;;;;;;;4943591;28;20037;-66
2023/04/25 09:31:33;;;;;;;6.32;2.50;;;;;;;;;;4946636;28;20035;-65
2023/04/25 09:34:03;;;;;;;12.52;3.47;;;;;;;;;;4943633;28;20100;-65
2023/04/25 09:36:30;;;;;;;10.40;2.10;;;;;;;;;;4958453;28;20069;-65
2023/04/25 09:38:56;;;;;;;8.52;2.10;;;;;;;;;;4956652;28;20113;-66
2023/04/25 09:41:25;;;;;;;4.95;2.25;;;;;;;;;;4976810;28;20772;-66
2023/04/25 09:43:50;;;;;;;6.60;2.05;;;;;;;;;;4935869;28;20043;-67
2023/04/25 09:46:18;;;;;;;4.75;1.92;;;;;;;;;;4977432;28;20046;-66
2023/04/25 09:48:53;;;;;;;9.23;2.60;;;;;;;;;;4955123;28;20560;-67
2023/04/25 09:51:19;;;;;;;6.88;2.20;;;;;;;;;;4955194;28;20051;-65
2023/04/25 09:53:46;;;;;;;9.20;2.58;;;;;;;;;;4935635;28;20169;-65
2023/04/25 09:56:13;;;;;;;8.25;2.25;;;;;;;;;;4963106;28;20042;-66
2023/04/25 09:58:40;;;;;;;7.50;2.00;;;;;;;;;;4978245;28;20506;-66
2023/04/25 10:01:16;;;;;;;8.02;2.20;;;;;;;;;;4954016;28;20086;-65
2023/04/25 10:03:43;;;;;;;5.75;2.03;;;;;;;;;;4945848;28;20652;-65
2023/04/25 10:06:14;;;;;;;8.13;2.13;;;;;;;;;;4958687;28;20100;-65
2023/04/25 10:08:40;;;;;;;8.77;2.72;;;;;;;;;;4955026;28;20049;-66
2023/04/25 10:11:07;;;;;;;7.63;2.38;;;;;;;;;;4957557;28;20043;-65
2023/04/25 10:13:34;;;;;;;6.85;2.38;;;;;;;;;;4959316;28;20042;-66
2023/04/25 10:16:01;;;;;;;3.80;2.15;;;;;;;;;;4954721;28;20468;-64
2023/04/25 10:18:28;;;;;;;5.07;1.65;;;;;;;;;;4972318;28;20050;-65
2023/04/25 10:20:56;;;;;;;2.33;1.35;;;;;;;;;;4967592;28;20097;-65
2023/04/25 10:23:21;;;;;;;3.92;1.90;;;;;;;;;;4942651;28;20042;-65
2023/04/25 10:25:47;;;;;;;4.05;1.73;;;;;;;;;;4955003;28;20054;-65
2023/04/25 10:28:13;;;;;;;5.28;1.65;;;;;;;;;;4959515;28;20126;-66
2023/04/25 10:30:57;;;;;;;4.40;1.55;;;;;;;;;;4951863;28;20691;-66
2023/04/25 10:33:32;;;;;;;7.50;2.75;;;;;;;;;;4954771;28;20559;-65
2023/04/25 10:35:58;;;;;;;3.47;1.80;;;;;;;;;;4965548;28;20146;-66
2023/04/25 10:38:25;;;;;;;3.60;1.52;;;;;;;;;;4970444;28;20667;-65
2023/04/25 10:41:05;;;;;;;6.65;1.98;;;;;;;;;;4976002;28;20048;-65
2023/04/25 10:43:37;;;;;;;3.85;1.27;;;;;;;;;;4963212;28;20075;-65
2023/04/25 10:46:22;;;;;;;2.75;1.63;;;;;;;;;;4933501;28;20479;-64
2023/04/25 10:48:52;;;;;;;3.38;1.60;;;;;;;;;;4960184;28;20049;-65
2023/04/25 10:51:18;;;;;;;4.05;1.20;;;;;;;;;;4978261;28;20042;-64
2023/04/25 10:53:45;;;;;;;4.53;1.50;;;;;;;;;;4972040;28;20041;-65
2023/04/25 10:56:39;;;;;;;4.60;1.30;;;;;;;;;;4946860;28;20063;-65
2023/04/25 10:59:11;;;;;;;3.05;1.40;;;;;;;;;;4947605;28;20038;-65
2023/04/25 11:01:41;;;;;;;8.85;1.58;;;;;;;;;;4961680;28;20049;-65
2023/04/25 11:04:29;;;;;;;2.22;1.70;;;;;;;;;;4974625;28;20058;-65
2023/04/25 11:07:09;;;;;;;4.80;1.83;;;;;;;;;;4942801;28;20337;-65
2023/04/25 11:09:37;;;;;;;2.83;1.35;;;;;;;;;;4979058;28;20606;-66
2023/04/25 11:12:03;;;;;;;5.95;1.70;;;;;;;;;;4984225;28;20541;-65
2023/04/25 11:14:29;;;;;;;4.15;1.27;;;;;;;;;;4953281;28;20050;-65
2023/04/25 11:16:55;;;;;;;4.68;2.22;;;;;;;;;;4969552;28;20047;-65
2023/04/25 11:19:21;;;;;;;4.30;2.08;;;;;;;;;;4944607;28;20055;-65
2023/04/25 11:21:47;;;;;;;6.75;2.40;;;;;;;;;;4958555;28;20042;-65
2023/04/25 11:24:12;;;;;;;6.25;1.75;;;;;;;;;;4940929;28;20054;-65
2023/04/25 11:26:37;;;;;;;4.40;1.58;;;;;;;;;;4962584;28;20434;-64
2023/04/25 11:29:03;;;;;;;5.68;2.00;;;;;;;;;;4973363;28;20046;-64
2023/04/25 11:31:29;;;;;;;5.78;2.13;;;;;;;;;;4968399;28;20057;-65
2023/04/25 11:33:57;;;;;;;3.72;1.30;;;;;;;;;;4948177;28;20039;-65
2023/04/25 11:36:23;;;;;;;4.40;1.77;;;;;;;;;;4974888;28;20065;-65
2023/04/25 11:38:53;;;;;;;3.20;1.88;;;;;;;;;;4964016;28;20158;-65
2023/04/25 11:41:20;;;;;;;5.47;1.50;;;;;;;;;;4949188;28;20190;-65
2023/04/25 11:43:48;;;;;;;3.35;1.75;;;;;;;;;;4971176;28;20034;-65
2023/04/25 11:46:13;;;;;;;5.00;1.70;;;;;;;;;;4966965;28;20399;-66
2023/04/25 11:48:42;;;;;;;3.42;1.25;;;;;;;;;;4960712;28;20082;-64
2023/04/25 11:51:08;;;;;;;5.05;1.58;;;;;;;;;;4961563;28;20074;-66
2023/04/25 11:53:35;;;;;;;6.00;2.00;;;;;;;;;;4950077;28;20034;-65
2023/04/25 11:56:00;;;;;;;5.95;1.60;;;;;;;;;;4973919;28;20113;-66
2023/04/25 11:58:26;;;;;;;3.83;1.30;;;;;;;;;;4955074;28;20587;-65
2023/04/25 12:00:53;;;;;;;3.35;1.20;;;;;;;;;;4959204;28;20062;-64
2023/04/25 12:03:23;;;;;;;3.97;1.30;;;;;;;;;;4936873;28;20046;-66
2023/04/25 12:05:51;;;;;;;6.78;2.28;;;;;;;;;;4963403;28;20123;-65
2023/04/25 12:08:16;;;;;;;5.35;1.50;;;;;;;;;;4959507;28;20035;-64
2023/04/25 12:10:45;;;;;;;5.05;1.60;;;;;;;;;;4945292;28;20510;-65
2023/04/25 12:13:25;;;;;;;4.65;1.50;;;;;;;;;;4956877;28;20064;-65
2023/04/25 12:15:52;;;;;;;2.38;1.30;;;;;;;;;;4959305;28;20049;-64
2023/04/25 12:18:23;;;;;;;5.85;1.60;;;;;;;;;;4975020;28;20042;-65
2023/04/25 12:20:49;;;;;;;3.13;1.25;;;;;;;;;;4977931;28;20831;-64
2023/04/25 12:23:15;;;;;;;5.53;1.80;;;;;;;;;;4970300;28;20050;-64
2023/04/25 12:25:41;;;;;;;5.13;1.30;;;;;;;;;;4976497;28;20058;-64
2023/04/25 12:28:11;;;;;;;3.20;1.30;;;;;;;;;;4981095;28;20038;-65
2023/04/25 12:30:55;;;;;;;5.53;1.10;;;;;;;;;;4977255;28;20050;-65
2023/04/25 12:33:22;;;;;;;5.68;1.65;;;;;;;;;;4956197;28;20054;-64
2023/04/25 12:35:47;;;;;;;5.15;1.35;;;;;;;;;;4945793;28;20045;-66
2023/04/25 12:38:24;;;;;;;9.13;1.88;;;;;;;;;;4974432;28;20046;-65
2023/04/25 12:40:49;;;;;;;5.43;1.80;;;;;;;;;;4953139;28;20030;-64
2023/04/25 12:43:15;;;;;;;5.32;1.67;;;;;;;;;;4949726;28;20038;-65
2023/04/25 12:45:42;;;;;;;4.82;1.50;;;;;;;;;;4952438;28;20074;-64
2023/04/25 12:48:07;;;;;;;1.65;1.08;;;;;;;;;;4963639;28;20615;-65
2023/04/25 12:50:32;;;;;;;2.47;1.20;;;;;;;;;;4951110;28;20063;-64
2023/04/25 12:52:58;;;;;;;3.60;1.17;;;;;;;;;;4954177;28;20050;-65
2023/04/25 12:55:23;;;;;;;5.57;2.03;;;;;;;;;;4961796;28;20096;-64
2023/04/25 12:57:48;;;;;;;4.95;1.50;;;;;;;;;;4980416;28;20042;-65
2023/04/25 13:00:17;;;;;;;4.20;1.50;;;;;;;;;;4979344;28;20038;-64
2023/04/25 13:02:43;;;;;;;1.85;1.40;;;;;;;;;;4952737;28;20117;-65
2023/04/25 13:05:08;;;;;;;5.28;2.63;;;;;;;;;;4951773;28;20038;-65
2023/04/25 13:07:34;;;;;;;6.00;1.58;;;;;;;;;;4970767;28;20744;-65
2023/04/25 13:10:02;;;;;;;5.78;1.63;;;;;;;;;;4959835;28;20057;-64
2023/04/25 13:12:28;;;;;;;6.35;1.88;;;;;;;;;;4957387;28;20053;-64
2023/04/25 13:14:53;;;;;;;4.57;1.52;;;;;;;;;;4974112;28;20132;-66
2023/04/25 13:17:18;;;;;;;4.40;1.27;;;;;;;;;;4939335;28;20046;-65
2023/04/25 13:19:44;;;;;;;5.10;1.75;;;;;;;;;;4975713;28;20046;-65
2023/04/25 13:22:09;;;;;;;3.45;1.33;;;;;;;;;;4966583;28;20042;-65
2023/04/25 13:24:34;;;;;;;3.97;1.58;;;;;;;;;;4947150;28;20085;-65
2023/04/25 13:27:01;;;;;;;4.60;1.35;;;;;;;;;;4971437;28;20049;-65
2023/04/25 13:29:26;;;;;;;2.65;1.42;;;;;;;;;;4979540;28;20105;-65
2023/04/25 13:31:52;;;;;;;5.10;1.75;;;;;;;;;;4950831;28;20058;-65
2023/04/25 13:34:17;;;;;;;6.38;1.90;;;;;;;;;;4950993;28;20039;-65
2023/04/25 13:36:42;;;;;;;4.97;1.70;;;;;;;;;;4958414;28;20037;-66
2023/04/25 13:39:08;;;;;;;4.40;1.50;;;;;;;;;;4982506;28;20105;-64
2023/04/25 13:41:33;;;;;;;3.63;1.70;;;;;;;;;;4978485;28;20035;-65
2023/04/25 13:44:00;;;;;;;3.88;1.52;;;;;;;;;;4960182;28;20042;-66
2023/04/25 13:46:26;;;;;;;3.67;1.48;;;;;;;;;;4948693;28;20035;-66
2023/04/25 13:48:52;;;;;;;5.75;1.63;;;;;;;;;;4970859;28;20701;-65
2023/04/25 13:51:17;;;;;;;2.97;1.63;;;;;;;;;;4960484;28;20042;-65
2023/04/25 13:53:43;;;;;;;3.20;1.40;;;;;;;;;;4957921;28;20034;-65
2023/04/25 13:56:11;;;;;;;3.47;1.73;;;;;;;;;;4974289;28;20038;-65
2023/04/25 13:58:37;;;;;;;1.80;1.15;;;;;;;;;;4953301;28;20038;-66
2023/04/25 14:01:03;;;;;;;4.70;1.38;;;;;;;;;;4978441;28;20049;-64
2023/04/25 14:03:30;;;;;;;3.78;1.45;;;;;;;;;;4943644;28;20090;-65
2023/04/25 14:05:56;;;;;;;4.75;1.70;;;;;;;;;;4981174;28;20042;-64
2023/04/25 14:08:21;;;;;;;3.10;1.35;;;;;;;;;;4980511;28;20718;-65
2023/04/25 14:10:46;;;;;;;3.92;1.77;;;;;;;;;;4980774;28;20034;-65
2023/04/25 14:13:12;;;;;;;1.83;1.38;;;;;;;;;;4931263;28;20039;-65
2023/04/25 14:15:38;;;;;;;3.92;1.30;;;;;;;;;;4979330;28;20044;-65
2023/04/25 14:18:04;;;;;;;4.70;1.60;;;;;;;;;;4953285;28;20036;-66
2023/04/25 14:20:30;;;;;;;5.07;1.80;;;;;;;;;;4971072;28;20140;-65
2023/04/25 14:22:56;;;;;;;1.33;1.08;;;;;;;;;;4967742;28;20026;-65
2023/04/25 14:25:23;;;;;;;4.30;1.52;;;;;;;;;;4960669;28;20041;-66
2023/04/25 14:27:49;;;;;;;4.10;1.17;;;;;;;;;;4965614;28;20133;-64
2023/04/25 14:30:16;;;;;;;2.88;2.00;;;;;;;;;;4953105;28;20097;-64
2023/04/25 14:32:42;;;;;;;2.30;1.20;;;;;;;;;;4945074;28;20057;-65
2023/04/25 14:35:08;;;;;;;4.65;1.50;;;;;;;;;;4984774;28;20061;-65
2023/04/25 14:37:34;;;;;;;6.60;2.03;;;;;;;;;;4989062;28;20038;-66
2023/04/25 14:39:59;;;;;;;2.65;1.50;;;;;;;;;;4978426;28;20038;-66